sensor_id;sensor_type;location;lat;lon;timestamp;pressure;altitude;pressure_sealevel;temperature;humidity
81397;BME280;70852;49.908;8.126;2023-07-20T00:01:51;100086.44;;;18.39;54.06
81397;BME280;70852;49.908;8.126;2023-07-20T00:04:17;100082.22;;;18.22;54.34
81397;BME280;70852;49.908;8.126;2023-07-20T00:06:44;100082.03;;;18.11;54.62
81397;BME280;70852;49.908;8.126;2023-07-20T00:09:11;100091.47;;;18.03;55.23
81397;BME280;70852;49.908;8.126;2023-07-20T00:11:37;100089.44;;;18.00;55.10
81397;BME280;70852;49.908;8.126;2023-07-20T00:14:04;100095.34;;;17.95;54.78
81397;BME280;70852;49.908;8.126;2023-07-20T00:16:33;100098.56;;;17.97;55.48
81397;BME280;70852;49.908;8.126;2023-07-20T00:18:58;100098.75;;;17.85;55.23
81397;BME280;70852;49.908;8.126;2023-07-20T00:21:26;100097.13;;;17.84;55.41
81397;BME280;70852;49.908;8.126;2023-07-20T00:23:53;100098.56;;;17.74;56.32
81397;BME280;70852;49.908;8.126;2023-07-20T00:26:19;100095.22;;;17.65;56.38
81397;BME280;70852;49.908;8.126;2023-07-20T00:28:48;100091.97;;;17.63;56.45
81397;BME280;70852;49.908;8.126;2023-07-20T00:31:13;100099.06;;;17.61;56.58
81397;BME280;70852;49.908;8.126;2023-07-20T00:33:38;100095.44;;;17.56;56.28
81397;BME280;70852;49.908;8.126;2023-07-20T00:36:08;100102.63;;;17.58;56.37
81397;BME280;70852;49.908;8.126;2023-07-20T00:38:34;100099.84;;;17.38;57.09
81397;BME280;70852;49.908;8.126;2023-07-20T00:41:01;100102.16;;;17.33;57.06
81397;BME280;70852;49.908;8.126;2023-07-20T00:43:29;100100.84;;;17.27;56.64
81397;BME280;70852;49.908;8.126;2023-07-20T00:45:55;100107.50;;;17.22;57.87
81397;BME280;70852;49.908;8.126;2023-07-20T00:48:23;100096.63;;;17.17;57.50
81397;BME280;70852;49.908;8.126;2023-07-20T00:50:50;100110.75;;;17.24;57.49
81397;BME280;70852;49.908;8.126;2023-07-20T00:53:18;100110.75;;;17.24;57.17
81397;BME280;70852;49.908;8.126;2023-07-20T00:55:44;100112.28;;;17.22;57.80
81397;BME280;70852;49.908;8.126;2023-07-20T00:58:10;100109.56;;;17.06;58.08
81397;BME280;70852;49.908;8.126;2023-07-20T01:00:37;100113.38;;;16.98;57.56
81397;BME280;70852;49.908;8.126;2023-07-20T01:03:03;100105.13;;;16.86;58.35
81397;BME280;70852;49.908;8.126;2023-07-20T01:05:42;100099.72;;;16.73;58.77
81397;BME280;70852;49.908;8.126;2023-07-20T01:08:43;100106.28;;;16.65;59.24
81397;BME280;70852;49.908;8.126;2023-07-20T01:11:24;100107.56;;;16.68;59.54
81397;BME280;70852;49.908;8.126;2023-07-20T01:13:55;100107.19;;;16.69;59.82
81397;BME280;70852;49.908;8.126;2023-07-20T01:16:22;100112.69;;;16.66;59.60
81397;BME280;70852;49.908;8.126;2023-07-20T01:18:48;100102.88;;;16.72;59.29
81397;BME280;70852;49.908;8.126;2023-07-20T01:21:20;100108.63;;;16.63;59.89
81397;BME280;70852;49.908;8.126;2023-07-20T01:24:06;100109.16;;;16.53;59.88
81397;BME280;70852;49.908;8.126;2023-07-20T01:29:41;100111.44;;;16.47;60.09
81397;BME280;70852;49.908;8.126;2023-07-20T01:32:09;100116.97;;;16.28;60.65
81397;BME280;70852;49.908;8.126;2023-07-20T01:34:35;100112.56;;;16.27;60.70
81397;BME280;70852;49.908;8.126;2023-07-20T01:37:05;100114.00;;;16.21;60.89
81397;BME280;70852;49.908;8.126;2023-07-20T01:39:31;100120.81;;;16.24;60.99
81397;BME280;70852;49.908;8.126;2023-07-20T01:41:58;100113.63;;;16.23;61.25
81397;BME280;70852;49.908;8.126;2023-07-20T01:44:27;100114.00;;;16.21;61.25
81397;BME280;70852;49.908;8.126;2023-07-20T01:46:52;100112.31;;;16.17;61.48
81397;BME280;70852;49.908;8.126;2023-07-20T01:49:18;100107.78;;;16.28;60.70
81397;BME280;70852;49.908;8.126;2023-07-20T01:51:45;100115.44;;;16.31;60.82
81397;BME280;70852;49.908;8.126;2023-07-20T01:54:13;100111.66;;;16.23;61.11
81397;BME280;70852;49.908;8.126;2023-07-20T01:56:38;100100.59;;;16.27;60.89
81397;BME280;70852;49.908;8.126;2023-07-20T01:59:04;100097.00;;;16.26;61.04
81397;BME280;70852;49.908;8.126;2023-07-20T02:01:33;100104.31;;;16.15;60.61
81397;BME280;70852;49.908;8.126;2023-07-20T02:03:59;100098.81;;;16.19;61.31
81397;BME280;70852;49.908;8.126;2023-07-20T02:06:24;100109.41;;;16.13;61.67
81397;BME280;70852;49.908;8.126;2023-07-20T02:08:49;100101.41;;;16.11;61.41
81397;BME280;70852;49.908;8.126;2023-07-20T02:11:15;100097.56;;;16.00;61.49
81397;BME280;70852;49.908;8.126;2023-07-20T02:13:40;100102.59;;;15.95;61.27
81397;BME280;70852;49.908;8.126;2023-07-20T02:16:08;100109.34;;;15.94;61.68
81397;BME280;70852;49.908;8.126;2023-07-20T02:18:33;100109.69;;;15.92;61.88
81397;BME280;70852;49.908;8.126;2023-07-20T02:21:06;100100.00;;;15.86;62.10
81397;BME280;70852;49.908;8.126;2023-07-20T02:23:31;100108.91;;;15.76;62.76
81397;BME280;70852;49.908;8.126;2023-07-20T02:26:00;100113.66;;;15.76;63.22
81397;BME280;70852;49.908;8.126;2023-07-20T02:28:25;100107.69;;;15.61;62.87
81397;BME280;70852;49.908;8.126;2023-07-20T02:30:50;100118.59;;;15.66;63.18
81397;BME280;70852;49.908;8.126;2023-07-20T02:33:21;100109.13;;;15.55;63.02
81397;BME280;70852;49.908;8.126;2023-07-20T02:35:46;100110.75;;;15.56;63.96
81397;BME280;70852;49.908;8.126;2023-07-20T02:38:17;100110.03;;;15.59;64.02
81397;BME280;70852;49.908;8.126;2023-07-20T02:40:47;100107.16;;;15.56;63.71
81397;BME280;70852;49.908;8.126;2023-07-20T02:43:15;100104.03;;;15.57;63.92
81397;BME280;70852;49.908;8.126;2023-07-20T02:45:46;100107.81;;;15.65;63.72
81397;BME280;70852;49.908;8.126;2023-07-20T02:48:16;100107.59;;;15.58;63.63
81397;BME280;70852;49.908;8.126;2023-07-20T02:50:43;100104.25;;;15.52;63.98
81397;BME280;70852;49.908;8.126;2023-07-20T02:53:09;100105.47;;;15.39;64.16
81397;BME280;70852;49.908;8.126;2023-07-20T02:55:34;100110.16;;;15.35;64.01
81397;BME280;70852;49.908;8.126;2023-07-20T02:57:59;100113.69;;;15.20;64.51
81397;BME280;70852;49.908;8.126;2023-07-20T03:00:28;100106.50;;;15.19;64.88
81397;BME280;70852;49.908;8.126;2023-07-20T03:02:55;100105.31;;;15.04;65.02
81397;BME280;70852;49.908;8.126;2023-07-20T03:05:23;100113.06;;;14.98;66.12
81397;BME280;70852;49.908;8.126;2023-07-20T03:07:53;100111.56;;;15.01;65.66
81397;BME280;70852;49.908;8.126;2023-07-20T03:10:23;100116.19;;;14.97;65.79
81397;BME280;70852;49.908;8.126;2023-07-20T03:12:53;100103.25;;;14.89;65.94
81397;BME280;70852;49.908;8.126;2023-07-20T03:15:25;100107.88;;;14.85;66.07
81397;BME280;70852;49.908;8.126;2023-07-20T03:17:57;100100.84;;;14.75;65.74
81397;BME280;70852;49.908;8.126;2023-07-20T03:20:26;100106.69;;;14.70;66.57
81397;BME280;70852;49.908;8.126;2023-07-20T03:22:51;100105.50;;;14.71;66.34
81397;BME280;70852;49.908;8.126;2023-07-20T03:25:18;100118.59;;;14.71;66.43
81397;BME280;70852;49.908;8.126;2023-07-20T03:27:44;100108.19;;;14.68;66.78
81397;BME280;70852;49.908;8.126;2023-07-20T03:30:10;100112.13;;;14.67;66.59
81397;BME280;70852;49.908;8.126;2023-07-20T03:32:41;100125.00;;;14.59;67.34
81397;BME280;70852;49.908;8.126;2023-07-20T03:35:08;100118.63;;;14.58;67.43
81397;BME280;70852;49.908;8.126;2023-07-20T03:37:34;100120.59;;;14.58;67.41
81397;BME280;70852;49.908;8.126;2023-07-20T03:40:03;100120.25;;;14.59;67.51
81397;BME280;70852;49.908;8.126;2023-07-20T03:42:35;100126.97;;;14.58;68.07
81397;BME280;70852;49.908;8.126;2023-07-20T03:45:01;100128.00;;;14.42;68.09
81397;BME280;70852;49.908;8.126;2023-07-20T03:47:29;100133.00;;;14.48;67.88
81397;BME280;70852;49.908;8.126;2023-07-20T03:49:59;100124.53;;;14.45;68.26
81397;BME280;70852;49.908;8.126;2023-07-20T03:52:28;100129.84;;;14.38;68.47
81397;BME280;70852;49.908;8.126;2023-07-20T03:54:55;100131.34;;;14.35;68.39
81397;BME280;70852;49.908;8.126;2023-07-20T03:57:23;100130.31;;;14.27;68.16
81397;BME280;70852;49.908;8.126;2023-07-20T03:59:51;100126.72;;;14.27;68.30
81397;BME280;70852;49.908;8.126;2023-07-20T04:02:16;100134.59;;;14.25;68.41
81397;BME280;70852;49.908;8.126;2023-07-20T04:04:42;100135.16;;;14.30;68.10
81397;BME280;70852;49.908;8.126;2023-07-20T04:07:11;100138.31;;;14.41;68.57
81397;BME280;70852;49.908;8.126;2023-07-20T04:09:37;100128.69;;;14.39;68.51
81397;BME280;70852;49.908;8.126;2023-07-20T04:12:06;100125.81;;;14.47;68.53
81397;BME280;70852;49.908;8.126;2023-07-20T04:14:31;100126.50;;;14.56;68.14
81397;BME280;70852;49.908;8.126;2023-07-20T04:17:01;100130.28;;;14.64;67.69
81397;BME280;70852;49.908;8.126;2023-07-20T04:19:29;100127.44;;;14.60;68.10
81397;BME280;70852;49.908;8.126;2023-07-20T04:21:56;100131.09;;;14.77;67.75
81397;BME280;70852;49.908;8.126;2023-07-20T04:24:24;100132.72;;;14.65;68.33
81397;BME280;70852;49.908;8.126;2023-07-20T04:26:52;100137.47;;;14.77;68.16
81397;BME280;70852;49.908;8.126;2023-07-20T04:29:22;100132.25;;;14.76;68.33
81397;BME280;70852;49.908;8.126;2023-07-20T04:31:50;100139.19;;;14.82;67.92
81397;BME280;70852;49.908;8.126;2023-07-20T04:34:16;100137.53;;;14.93;67.81
81397;BME280;70852;49.908;8.126;2023-07-20T04:36:43;100137.88;;;15.04;67.98
81397;BME280;70852;49.908;8.126;2023-07-20T04:39:11;100142.38;;;14.96;67.83
81397;BME280;70852;49.908;8.126;2023-07-20T04:41:37;100137.13;;;15.07;66.29
81397;BME280;70852;49.908;8.126;2023-07-20T04:44:02;100142.81;;;15.10;66.57
81397;BME280;70852;49.908;8.126;2023-07-20T04:46:27;100144.16;;;15.16;67.14
81397;BME280;70852;49.908;8.126;2023-07-20T04:48:58;100145.31;;;15.15;66.07
81397;BME280;70852;49.908;8.126;2023-07-20T04:51:23;100139.00;;;15.15;66.27
81397;BME280;70852;49.908;8.126;2023-07-20T04:53:51;100143.47;;;15.19;67.24
81397;BME280;70852;49.908;8.126;2023-07-20T04:56:18;100137.06;;;15.31;67.38
81397;BME280;70852;49.908;8.126;2023-07-20T04:58:44;100141.00;;;15.30;67.56
81397;BME280;70852;49.908;8.126;2023-07-20T05:01:10;100131.53;;;15.47;67.15
81397;BME280;70852;49.908;8.126;2023-07-20T05:03:35;100143.09;;;15.49;67.02
81397;BME280;70852;49.908;8.126;2023-07-20T05:06:00;100144.97;;;15.72;66.18
81397;BME280;70852;49.908;8.126;2023-07-20T05:08:26;100147.81;;;15.88;66.08
81397;BME280;70852;49.908;8.126;2023-07-20T05:10:54;100149.78;;;16.03;65.84
81397;BME280;70852;49.908;8.126;2023-07-20T05:13:23;100154.44;;;16.15;65.51
81397;BME280;70852;49.908;8.126;2023-07-20T05:15:51;100150.47;;;16.32;65.55
81397;BME280;70852;49.908;8.126;2023-07-20T05:18:22;100142.38;;;16.42;64.00
81397;BME280;70852;49.908;8.126;2023-07-20T05:20:48;100143.38;;;16.50;64.03
81397;BME280;70852;49.908;8.126;2023-07-20T05:23:21;100137.72;;;16.62;63.92
81397;BME280;70852;49.908;8.126;2023-07-20T05:25:56;100139.19;;;16.75;63.70
81397;BME280;70852;49.908;8.126;2023-07-20T05:28:23;100146.63;;;16.87;63.27
81397;BME280;70852;49.908;8.126;2023-07-20T05:30:50;100144.19;;;16.86;63.57
81397;BME280;70852;49.908;8.126;2023-07-20T05:33:17;100138.03;;;16.96;62.33
81397;BME280;70852;49.908;8.126;2023-07-20T05:35:46;100135.78;;;17.01;62.19
81397;BME280;70852;49.908;8.126;2023-07-20T05:38:16;100141.44;;;17.05;62.52
81397;BME280;70852;49.908;8.126;2023-07-20T05:40:42;100143.78;;;17.22;61.59
81397;BME280;70852;49.908;8.126;2023-07-20T05:43:10;100137.84;;;17.24;61.59
81397;BME280;70852;49.908;8.126;2023-07-20T05:45:39;100143.44;;;17.24;61.26
81397;BME280;70852;49.908;8.126;2023-07-20T05:48:08;100142.59;;;17.42;61.62
81397;BME280;70852;49.908;8.126;2023-07-20T05:50:37;100157.81;;;17.45;60.91
81397;BME280;70852;49.908;8.126;2023-07-20T05:53:04;100153.50;;;17.67;60.66
81397;BME280;70852;49.908;8.126;2023-07-20T05:55:31;100149.94;;;17.70;60.12
81397;BME280;70852;49.908;8.126;2023-07-20T05:57:56;100157.13;;;17.71;60.56
81397;BME280;70852;49.908;8.126;2023-07-20T06:00:24;100163.72;;;17.82;60.32
81397;BME280;70852;49.908;8.126;2023-07-20T06:02:54;100161.56;;;17.95;60.38
81397;BME280;70852;49.908;8.126;2023-07-20T06:05:29;100156.09;;;18.02;59.96
81397;BME280;70852;49.908;8.126;2023-07-20T06:07:57;100161.25;;;18.22;59.37
81397;BME280;70852;49.908;8.126;2023-07-20T06:10:23;100161.88;;;18.35;59.12
81397;BME280;70852;49.908;8.126;2023-07-20T06:12:50;100166.47;;;18.47;58.67
81397;BME280;70852;49.908;8.126;2023-07-20T06:15:28;100168.94;;;18.75;57.94
81397;BME280;70852;49.908;8.126;2023-07-20T06:17:56;100169.78;;;18.79;57.54
81397;BME280;70852;49.908;8.126;2023-07-20T06:20:23;100167.88;;;18.86;57.03
81397;BME280;70852;49.908;8.126;2023-07-20T06:22:49;100169.78;;;19.09;56.68
81397;BME280;70852;49.908;8.126;2023-07-20T06:25:14;100167.09;;;19.16;55.49
81397;BME280;70852;49.908;8.126;2023-07-20T06:27:39;100166.38;;;19.22;55.39
81397;BME280;70852;49.908;8.126;2023-07-20T06:30:05;100161.28;;;19.31;55.69
81397;BME280;70852;49.908;8.126;2023-07-20T06:32:30;100161.00;;;19.73;54.81
81397;BME280;70852;49.908;8.126;2023-07-20T06:34:56;100167.31;;;20.04;53.16
81397;BME280;70852;49.908;8.126;2023-07-20T06:37:24;100164.91;;;20.02;52.61
81397;BME280;70852;49.908;8.126;2023-07-20T06:39:51;100178.25;;;20.16;52.61
81397;BME280;70852;49.908;8.126;2023-07-20T06:42:17;100171.56;;;20.75;51.85
81397;BME280;70852;49.908;8.126;2023-07-20T06:44:45;100176.69;;;21.25;49.21
81397;BME280;70852;49.908;8.126;2023-07-20T06:47:13;100164.06;;;21.80;47.79
81397;BME280;70852;49.908;8.126;2023-07-20T06:49:38;100166.47;;;21.89;47.38
81397;BME280;70852;49.908;8.126;2023-07-20T06:52:03;100160.47;;;21.98;47.57
81397;BME280;70852;49.908;8.126;2023-07-20T06:54:31;100168.56;;;22.20;47.42
81397;BME280;70852;49.908;8.126;2023-07-20T06:56:59;100168.16;;;22.54;46.29
81397;BME280;70852;49.908;8.126;2023-07-20T06:59:25;100174.97;;;22.74;45.40
81397;BME280;70852;49.908;8.126;2023-07-20T07:01:50;100176.56;;;23.00;45.96
81397;BME280;70852;49.908;8.126;2023-07-20T07:04:17;100176.81;;;23.45;44.94
81397;BME280;70852;49.908;8.126;2023-07-20T07:06:45;100175.69;;;23.21;45.29
81397;BME280;70852;49.908;8.126;2023-07-20T07:09:11;100184.53;;;23.23;43.55
81397;BME280;70852;49.908;8.126;2023-07-20T07:11:36;100178.56;;;23.03;44.73
81397;BME280;70852;49.908;8.126;2023-07-20T07:14:01;100180.59;;;22.95;44.76
81397;BME280;70852;49.908;8.126;2023-07-20T07:16:29;100178.63;;;22.32;46.26
81397;BME280;70852;49.908;8.126;2023-07-20T07:18:57;100173.63;;;21.58;48.13
81397;BME280;70852;49.908;8.126;2023-07-20T07:21:22;100183.41;;;22.17;47.34
81397;BME280;70852;49.908;8.126;2023-07-20T07:23:51;100170.94;;;22.89;45.18
81397;BME280;70852;49.908;8.126;2023-07-20T07:26:18;100171.56;;;23.43;44.14
81397;BME280;70852;49.908;8.126;2023-07-20T07:28:46;100171.94;;;24.29;41.68
81397;BME280;70852;49.908;8.126;2023-07-20T07:31:11;100180.31;;;24.39;41.11
81397;BME280;70852;49.908;8.126;2023-07-20T07:33:37;100180.19;;;22.90;44.71
81397;BME280;70852;49.908;8.126;2023-07-20T07:36:05;100183.41;;;22.10;46.36
81397;BME280;70852;49.908;8.126;2023-07-20T07:38:32;100184.06;;;21.58;48.02
81397;BME280;70852;49.908;8.126;2023-07-20T07:40:59;100178.94;;;21.91;47.50
81397;BME280;70852;49.908;8.126;2023-07-20T07:43:24;100183.00;;;22.12;46.20
81397;BME280;70852;49.908;8.126;2023-07-20T07:45:54;100179.69;;;21.71;47.38
81397;BME280;70852;49.908;8.126;2023-07-20T07:48:24;100174.56;;;22.37;46.99
81397;BME280;70852;49.908;8.126;2023-07-20T07:50:50;100176.16;;;22.06;47.51
81397;BME280;70852;49.908;8.126;2023-07-20T07:53:18;100188.53;;;21.83;46.79
81397;BME280;70852;49.908;8.126;2023-07-20T07:55:45;100184.44;;;21.56;47.56
81397;BME280;70852;49.908;8.126;2023-07-20T07:58:11;100193.19;;;21.33;48.44
81397;BME280;70852;49.908;8.126;2023-07-20T08:00:36;100194.38;;;21.32;48.32
81397;BME280;70852;49.908;8.126;2023-07-20T08:03:05;100184.19;;;22.04;46.72
81397;BME280;70852;49.908;8.126;2023-07-20T08:05:30;100185.03;;;22.79;45.04
81397;BME280;70852;49.908;8.126;2023-07-20T08:08:00;100186.63;;;23.95;42.48
81397;BME280;70852;49.908;8.126;2023-07-20T08:10:28;100190.38;;;23.75;42.37
81397;BME280;70852;49.908;8.126;2023-07-20T08:12:56;100193.25;;;23.67;41.88
81397;BME280;70852;49.908;8.126;2023-07-20T08:15:24;100174.84;;;23.34;43.10
81397;BME280;70852;49.908;8.126;2023-07-20T08:17:52;100182.50;;;23.34;43.61
81397;BME280;70852;49.908;8.126;2023-07-20T08:20:19;100178.50;;;23.28;43.73
81397;BME280;70852;49.908;8.126;2023-07-20T08:22:51;100190.63;;;23.00;44.63
81397;BME280;70852;49.908;8.126;2023-07-20T08:25:19;100193.03;;;23.05;44.63
81397;BME280;70852;49.908;8.126;2023-07-20T08:27:49;100191.47;;;22.65;44.83
81397;BME280;70852;49.908;8.126;2023-07-20T08:30:16;100189.09;;;22.78;44.85
81397;BME280;70852;49.908;8.126;2023-07-20T08:32:42;100192.63;;;23.14;43.50
81397;BME280;70852;49.908;8.126;2023-07-20T08:35:10;100189.56;;;23.74;43.34
81397;BME280;70852;49.908;8.126;2023-07-20T08:37:36;100185.56;;;24.37;40.95
81397;BME280;70852;49.908;8.126;2023-07-20T08:40:01;100183.84;;;24.54;40.76
81397;BME280;70852;49.908;8.126;2023-07-20T08:42:29;100182.22;;;24.53;41.06
81397;BME280;70852;49.908;8.126;2023-07-20T08:45:00;100181.16;;;24.81;39.49
81397;BME280;70852;49.908;8.126;2023-07-20T08:47:32;100187.97;;;24.42;40.27
81397;BME280;70852;49.908;8.126;2023-07-20T08:50:01;100181.16;;;24.36;40.91
81397;BME280;70852;49.908;8.126;2023-07-20T08:52:27;100178.09;;;25.06;39.55
81397;BME280;70852;49.908;8.126;2023-07-20T08:54:53;100173.59;;;25.46;38.37
81397;BME280;70852;49.908;8.126;2023-07-20T08:57:21;100176.75;;;25.51;37.10
81397;BME280;70852;49.908;8.126;2023-07-20T08:59:47;100176.47;;;25.42;38.29
81397;BME280;70852;49.908;8.126;2023-07-20T09:02:16;100171.13;;;24.76;39.32
81397;BME280;70852;49.908;8.126;2023-07-20T09:04:46;100175.81;;;24.90;38.79
81397;BME280;70852;49.908;8.126;2023-07-20T09:07:11;100172.59;;;25.63;36.30
81397;BME280;70852;49.908;8.126;2023-07-20T09:09:43;100177.88;;;25.58;37.76
81397;BME280;70852;49.908;8.126;2023-07-20T09:12:15;100173.38;;;24.96;39.32
81397;BME280;70852;49.908;8.126;2023-07-20T09:14:43;100167.22;;;24.60;38.80
81397;BME280;70852;49.908;8.126;2023-07-20T09:17:13;100171.94;;;24.29;39.23
81397;BME280;70852;49.908;8.126;2023-07-20T09:19:38;100170.84;;;24.08;40.25
81397;BME280;70852;49.908;8.126;2023-07-20T09:22:05;100168.34;;;24.21;40.44
81397;BME280;70852;49.908;8.126;2023-07-20T09:24:31;100173.25;;;24.65;38.65
81397;BME280;70852;49.908;8.126;2023-07-20T09:27:01;100168.00;;;24.67;39.14
81397;BME280;70852;49.908;8.126;2023-07-20T09:29:32;100167.63;;;24.06;39.10
81397;BME280;70852;49.908;8.126;2023-07-20T09:32:02;100169.81;;;24.40;38.93
81397;BME280;70852;49.908;8.126;2023-07-20T09:34:31;100169.56;;;24.24;39.00
81397;BME280;70852;49.908;8.126;2023-07-20T09:36:59;100168.22;;;23.80;39.36
81397;BME280;70852;49.908;8.126;2023-07-20T09:39:29;100164.19;;;23.78;40.66
81397;BME280;70852;49.908;8.126;2023-07-20T09:42:00;100167.22;;;23.24;40.40
81397;BME280;70852;49.908;8.126;2023-07-20T09:44:34;100168.88;;;23.18;42.17
81397;BME280;70852;49.908;8.126;2023-07-20T09:46:59;100167.25;;;23.14;41.97
81397;BME280;70852;49.908;8.126;2023-07-20T09:49:26;100173.72;;;23.07;42.08
81397;BME280;70852;49.908;8.126;2023-07-20T09:51:53;100171.28;;;23.16;42.34
81397;BME280;70852;49.908;8.126;2023-07-20T09:54:23;100163.34;;;24.43;40.18
81397;BME280;70852;49.908;8.126;2023-07-20T09:56:54;100165.97;;;25.09;37.09
81397;BME280;70852;49.908;8.126;2023-07-20T09:59:20;100159.41;;;24.33;38.90
81397;BME280;70852;49.908;8.126;2023-07-20T10:01:49;100161.50;;;23.49;40.34
81397;BME280;70852;49.908;8.126;2023-07-20T10:04:23;100159.59;;;23.21;41.92
81397;BME280;70852;49.908;8.126;2023-07-20T10:06:55;100159.97;;;23.23;41.76
81397;BME280;70852;49.908;8.126;2023-07-20T10:09:21;100157.13;;;23.34;41.35
81397;BME280;70852;49.908;8.126;2023-07-20T10:11:50;100158.88;;;22.68;43.21
81397;BME280;70852;49.908;8.126;2023-07-20T10:14:20;100154.06;;;22.96;42.17
81397;BME280;70852;49.908;8.126;2023-07-20T10:16:55;100150.81;;;23.02;42.77
81397;BME280;70852;49.908;8.126;2023-07-20T10:21:57;100143.38;;;23.54;42.15
81397;BME280;70852;49.908;8.126;2023-07-20T10:24:27;100140.97;;;23.42;41.93
81397;BME280;70852;49.908;8.126;2023-07-20T10:26:55;100143.34;;;23.61;41.93
81397;BME280;70852;49.908;8.126;2023-07-20T10:29:24;100132.03;;;24.27;41.09
81397;BME280;70852;49.908;8.126;2023-07-20T10:31:54;100133.38;;;26.19;35.24
81397;BME280;70852;49.908;8.126;2023-07-20T10:34:20;100126.53;;;26.86;34.46
81397;BME280;70852;49.908;8.126;2023-07-20T10:36:46;100133.53;;;26.58;34.33
81397;BME280;70852;49.908;8.126;2023-07-20T10:39:30;100122.25;;;25.81;36.37
81397;BME280;70852;49.908;8.126;2023-07-20T10:42:03;100125.34;;;24.96;37.43
81397;BME280;70852;49.908;8.126;2023-07-20T10:44:33;100122.69;;;24.78;38.71
81397;BME280;70852;49.908;8.126;2023-07-20T10:47:08;100128.78;;;24.28;38.93
81397;BME280;70852;49.908;8.126;2023-07-20T10:49:34;100124.22;;;24.45;39.57
81397;BME280;70852;49.908;8.126;2023-07-20T10:52:04;100115.25;;;25.89;36.72
81397;BME280;70852;49.908;8.126;2023-07-20T10:57:22;100110.72;;;28.36;32.44
81397;BME280;70852;49.908;8.126;2023-07-20T10:59:48;100104.72;;;27.26;32.68
81397;BME280;70852;49.908;8.126;2023-07-20T11:02:17;100099.47;;;26.62;33.53
81397;BME280;70852;49.908;8.126;2023-07-20T11:04:46;100104.19;;;25.72;34.79
81397;BME280;70852;49.908;8.126;2023-07-20T11:07:36;100113.38;;;25.19;35.96
81397;BME280;70852;49.908;8.126;2023-07-20T11:10:13;100111.81;;;24.76;37.19
81397;BME280;70852;49.908;8.126;2023-07-20T11:12:42;100107.34;;;24.79;38.58
81397;BME280;70852;49.908;8.126;2023-07-20T11:15:44;100102.72;;;24.99;37.37
81397;BME280;70852;49.908;8.126;2023-07-20T11:18:12;100111.22;;;24.96;36.57
81397;BME280;70852;49.908;8.126;2023-07-20T11:20:43;100106.25;;;25.07;37.53
81397;BME280;70852;49.908;8.126;2023-07-20T11:23:13;100108.94;;;24.80;36.08
81397;BME280;70852;49.908;8.126;2023-07-20T11:25:41;100097.69;;;24.76;36.05
81397;BME280;70852;49.908;8.126;2023-07-20T11:28:08;100096.75;;;26.08;34.67
81397;BME280;70852;49.908;8.126;2023-07-20T11:30:37;100086.66;;;27.56;31.04
81397;BME280;70852;49.908;8.126;2023-07-20T11:33:04;100095.34;;;27.65;31.62
81397;BME280;70852;49.908;8.126;2023-07-20T11:35:30;100094.97;;;27.83;30.52
81397;BME280;70852;49.908;8.126;2023-07-20T11:37:58;100093.53;;;27.00;31.53
81397;BME280;70852;49.908;8.126;2023-07-20T11:40:23;100097.66;;;26.52;33.73
81397;BME280;70852;49.908;8.126;2023-07-20T11:42:49;100096.31;;;26.10;34.59
81397;BME280;70852;49.908;8.126;2023-07-20T11:45:16;100097.22;;;25.80;35.81
81397;BME280;70852;49.908;8.126;2023-07-20T11:47:42;100087.16;;;26.02;33.53
81397;BME280;70852;49.908;8.126;2023-07-20T11:50:11;100092.63;;;25.63;34.79
81397;BME280;70852;49.908;8.126;2023-07-20T11:52:39;100091.50;;;25.23;34.78
81397;BME280;70852;49.908;8.126;2023-07-20T11:55:05;100089.63;;;25.12;34.82
81397;BME280;70852;49.908;8.126;2023-07-20T11:57:31;100087.00;;;24.98;34.29
81397;BME280;70852;49.908;8.126;2023-07-20T11:59:58;100082.66;;;24.87;34.46
81397;BME280;70852;49.908;8.126;2023-07-20T12:02:32;100079.81;;;24.87;34.72
81397;BME280;70852;49.908;8.126;2023-07-20T12:04:59;100076.66;;;24.81;35.61
81397;BME280;70852;49.908;8.126;2023-07-20T12:07:28;100075.03;;;24.80;34.59
81397;BME280;70852;49.908;8.126;2023-07-20T12:10:07;100068.38;;;24.63;35.15
81397;BME280;70852;49.908;8.126;2023-07-20T12:12:37;100064.47;;;24.50;35.93
81397;BME280;70852;49.908;8.126;2023-07-20T12:15:31;100066.78;;;24.62;35.29
81397;BME280;70852;49.908;8.126;2023-07-20T12:18:01;100062.94;;;24.79;37.13
81397;BME280;70852;49.908;8.126;2023-07-20T12:23:01;100064.78;;;24.22;35.17
81397;BME280;70852;49.908;8.126;2023-07-20T12:25:52;100060.13;;;24.46;35.41
81397;BME280;70852;49.908;8.126;2023-07-20T12:28:20;100054.38;;;24.53;35.40
81397;BME280;70852;49.908;8.126;2023-07-20T12:30:46;100058.78;;;24.91;34.93
81397;BME280;70852;49.908;8.126;2023-07-20T12:33:13;100048.66;;;25.28;35.48
81397;BME280;70852;49.908;8.126;2023-07-20T12:35:44;100050.22;;;25.63;34.23
81397;BME280;70852;49.908;8.126;2023-07-20T12:38:09;100045.84;;;26.32;33.71
81397;BME280;70852;49.908;8.126;2023-07-20T12:40:34;100040.75;;;26.86;32.43
81397;BME280;70852;49.908;8.126;2023-07-20T12:43:01;100037.16;;;26.62;32.34
81397;BME280;70852;49.908;8.126;2023-07-20T12:45:26;100028.03;;;25.84;32.70
81397;BME280;70852;49.908;8.126;2023-07-20T12:47:54;100031.06;;;26.44;32.83
81397;BME280;70852;49.908;8.126;2023-07-20T12:50:22;100027.84;;;25.72;33.65
81397;BME280;70852;49.908;8.126;2023-07-20T12:52:47;100029.38;;;26.00;32.85
81397;BME280;70852;49.908;8.126;2023-07-20T12:55:12;100034.56;;;25.81;33.55
81397;BME280;70852;49.908;8.126;2023-07-20T12:57:38;100023.25;;;26.05;32.71
81397;BME280;70852;49.908;8.126;2023-07-20T13:00:08;100020.41;;;26.05;32.45
81397;BME280;70852;49.908;8.126;2023-07-20T13:02:37;100021.94;;;26.56;32.16
81397;BME280;70852;49.908;8.126;2023-07-20T13:05:09;100024.31;;;26.38;32.60
81397;BME280;70852;49.908;8.126;2023-07-20T13:07:36;100015.47;;;26.55;31.15